createdAt,value
2019-05-13T00:02:13.852Z,995.39
2019-05-13T00:07:14.035Z,995.38
2019-05-13T00:12:14.411Z,995.39
2019-05-13T00:17:15.181Z,995.38
2019-05-13T00:22:14.619Z,995.3
2019-05-13T00:27:25.900Z,995.3
2019-05-13T00:32:26.908Z,995.3
2019-05-13T00:37:26.776Z,995.19
2019-05-13T00:42:26.807Z,995.2
2019-05-13T00:47:26.922Z,995.2
2019-05-13T00:52:27.027Z,995.14
2019-05-13T00:57:27.023Z,995.17
2019-05-13T01:02:27.129Z,995.17
2019-05-13T01:07:29.545Z,995.13
2019-05-13T01:12:27.237Z,995.14
2019-05-13T01:17:27.272Z,995.16
2019-05-13T01:22:35.056Z,995.09
2019-05-13T01:27:34.464Z,995.12
2019-05-13T01:32:34.798Z,995.05
2019-05-13T01:37:46.314Z,995.06
2019-05-13T01:42:34.342Z,995.13
2019-05-13T01:47:35.062Z,995.19
2019-05-13T01:52:34.972Z,995.22
2019-05-13T01:57:34.827Z,995.31
2019-05-13T02:02:34.453Z,995.31
2019-05-13T02:07:34.504Z,995.28
2019-05-13T02:12:34.686Z,995.39
2019-05-13T02:17:41.022Z,995.4
2019-05-13T02:22:43.811Z,995.38
2019-05-13T02:27:44.582Z,995.37
2019-05-13T02:32:43.650Z,995.38
2019-05-13T02:37:44.320Z,995.45
2019-05-13T02:42:44.326Z,995.43
2019-05-13T02:47:44.950Z,995.47
2019-05-13T02:52:45.023Z,995.51
2019-05-13T02:57:44.476Z,995.57
2019-05-13T03:02:44.688Z,995.58
2019-05-13T03:07:43.689Z,995.64
2019-05-13T03:12:54.072Z,995.63
2019-05-13T03:17:53.147Z,995.61
2019-05-13T03:22:53.604Z,995.62
2019-05-13T03:27:54.763Z,995.53
2019-05-13T03:33:11.290Z,995.67
2019-05-13T03:37:53.428Z,995.73
2019-05-13T03:42:54.213Z,995.75
2019-05-13T03:47:53.310Z,995.81
2019-05-13T03:52:53.268Z,995.86
2019-05-13T03:57:53.941Z,995.92
2019-05-13T04:02:52.783Z,995.86
2019-05-13T04:07:58.620Z,995.95
2019-05-13T04:12:58.568Z,995.93
2019-05-13T04:17:58.615Z,996.0
2019-05-13T04:22:58.643Z,996.05
2019-05-13T04:27:58.706Z,996.11
2019-05-13T04:33:01.402Z,996.14
2019-05-13T04:37:58.870Z,996.07
2019-05-13T04:43:02.030Z,996.06
2019-05-13T04:47:59.191Z,996.1
2019-05-13T04:52:59.031Z,996.05
2019-05-13T04:57:59.127Z,996.04
2019-05-13T05:03:05.513Z,996.09
2019-05-13T05:08:05.627Z,996.16
2019-05-13T05:13:06.222Z,996.22
2019-05-13T05:18:06.258Z,996.35
2019-05-13T05:23:06.662Z,996.37
2019-05-13T05:28:06.514Z,996.39
2019-05-13T05:33:06.498Z,996.41
2019-05-13T05:38:06.714Z,996.37
2019-05-13T05:43:06.812Z,996.31
2019-05-13T05:48:06.750Z,996.35
2019-05-13T05:53:06.922Z,996.39
2019-05-13T05:58:13.446Z,996.24
2019-05-13T06:03:14.510Z,996.24
2019-05-13T06:08:13.512Z,996.16
2019-05-13T06:13:13.627Z,996.15
2019-05-13T06:18:13.820Z,996.18
2019-05-13T06:23:13.924Z,996.16
2019-05-13T06:28:13.955Z,996.17
2019-05-13T06:33:13.993Z,996.1
2019-05-13T06:38:14.132Z,996.11
2019-05-13T06:43:14.320Z,996.11
2019-05-13T06:48:14.248Z,996.09
2019-05-13T06:53:21.060Z,996.11
2019-05-13T06:58:22.475Z,996.06
2019-05-13T07:03:22.471Z,996.08
2019-05-13T07:08:22.394Z,995.98
2019-05-13T07:13:22.283Z,995.98
2019-05-13T07:18:22.399Z,995.99
2019-05-13T07:23:22.659Z,996.05
2019-05-13T07:28:22.539Z,996.0
2019-05-13T07:33:22.089Z,995.97
2019-05-13T07:38:22.934Z,995.99
2019-05-13T07:43:22.406Z,995.9
2019-05-13T07:48:28.713Z,995.93
2019-05-13T07:53:28.985Z,995.9
2019-05-13T07:58:29.249Z,995.96
2019-05-13T08:03:31.971Z,995.87
2019-05-13T08:08:29.143Z,995.85
2019-05-13T08:13:31.900Z,995.88
2019-05-13T08:18:32.212Z,995.94
2019-05-13T08:23:31.673Z,995.89
2019-05-13T08:28:32.932Z,995.84
2019-05-13T08:33:32.684Z,995.82
2019-05-13T08:38:32.480Z,995.74
2019-05-13T08:43:37.959Z,995.66
2019-05-13T08:48:38.072Z,995.6
2019-05-13T08:53:38.068Z,995.62
2019-05-13T08:58:38.127Z,995.6
2019-05-13T09:03:38.244Z,995.55
2019-05-13T09:08:38.233Z,995.61
2019-05-13T09:13:38.368Z,995.6
2019-05-13T09:18:38.545Z,995.53
2019-05-13T09:23:41.108Z,995.47
2019-05-13T09:28:38.924Z,995.58
2019-05-13T09:33:38.865Z,995.5
2019-05-13T09:38:45.379Z,995.55
2019-05-13T09:43:45.344Z,995.53
2019-05-13T09:48:45.454Z,995.43
2019-05-13T09:53:45.682Z,995.44
2019-05-13T09:58:45.969Z,995.43
2019-05-13T10:09:34.097Z,995.38
2019-05-13T10:14:34.135Z,995.33
2019-05-13T10:19:34.204Z,995.41
2019-05-13T10:24:34.319Z,995.3
2019-05-13T10:29:34.342Z,995.23
2019-05-13T10:34:43.267Z,995.12
2019-05-13T10:39:40.683Z,995.11
2019-05-13T10:44:43.218Z,995.0
2019-05-13T10:49:43.110Z,995.11
2019-05-13T10:54:42.157Z,994.99
2019-05-13T10:59:41.528Z,994.93
2019-05-13T11:04:42.367Z,994.86
2019-05-13T11:09:42.531Z,994.9
2019-05-13T11:14:46.626Z,994.85
2019-05-13T11:19:41.283Z,994.97
2019-05-13T11:24:43.751Z,994.92
2019-05-13T11:29:47.652Z,994.89
2019-05-13T11:34:47.707Z,994.89
2019-05-13T11:39:47.920Z,994.84
2019-05-13T11:44:47.958Z,994.86
2019-05-13T11:49:48.063Z,994.8
2019-05-13T11:54:48.167Z,994.7
2019-05-13T11:59:48.164Z,994.56
2019-05-13T12:04:48.347Z,994.69
2019-05-13T12:09:48.297Z,994.66
2019-05-13T12:15:38.734Z,994.51
2019-05-13T12:19:48.386Z,994.59
2019-05-13T12:24:55.173Z,994.57
2019-05-13T12:29:54.881Z,994.6
2019-05-13T12:34:54.889Z,994.64
2019-05-13T12:39:55.009Z,994.64
2019-05-13T12:45:13.885Z,994.62
2019-05-13T12:49:55.452Z,994.65
2019-05-13T12:54:55.329Z,994.58
2019-05-13T12:59:55.324Z,994.55
2019-05-13T13:05:23.841Z,994.55
2019-05-13T13:09:55.563Z,994.48
2019-05-13T13:14:58.459Z,994.43
2019-05-13T13:25:13.993Z,994.34
2019-05-13T13:30:13.297Z,994.29
2019-05-13T13:35:15.420Z,994.26
2019-05-13T13:40:13.527Z,994.22
2019-05-13T13:45:14.024Z,994.19
2019-05-13T13:50:13.728Z,994.31
2019-05-13T13:55:16.996Z,994.22
2019-05-13T14:00:55.861Z,994.15
2019-05-13T14:05:14.043Z,994.17
2019-05-13T14:10:14.195Z,994.13
2019-05-13T14:15:22.112Z,994.13
2019-05-13T14:20:22.543Z,994.05
2019-05-13T14:25:22.977Z,994.01
2019-05-13T14:30:22.595Z,994.02
2019-05-13T14:35:22.551Z,994.02
2019-05-13T14:40:22.943Z,993.9
2019-05-13T14:45:24.380Z,993.76
2019-05-13T14:50:22.094Z,993.83
2019-05-13T14:55:22.023Z,993.68
2019-05-13T15:00:22.727Z,993.73
2019-05-13T15:05:22.642Z,993.65
2019-05-13T15:10:31.554Z,993.62
2019-05-13T15:15:28.486Z,993.55
2019-05-13T15:20:28.608Z,993.6
2019-05-13T15:25:28.588Z,993.61
2019-05-13T15:30:28.835Z,993.56
2019-05-13T15:35:31.487Z,993.58
2019-05-13T15:40:36.365Z,993.58
2019-05-13T15:45:36.693Z,993.52
2019-05-13T15:50:37.365Z,993.49
2019-05-13T15:55:36.903Z,993.53
2019-05-13T16:00:36.905Z,993.57
2019-05-13T16:05:43.262Z,993.48
2019-05-13T16:10:44.938Z,993.53
2019-05-13T16:15:45.079Z,993.47
2019-05-13T16:20:46.037Z,993.46
2019-05-13T16:25:45.488Z,993.52
2019-05-13T16:30:45.621Z,993.52
2019-05-13T16:35:45.420Z,993.47
2019-05-13T16:40:45.380Z,993.47
2019-05-13T16:45:45.825Z,993.48
2019-05-13T16:50:46.116Z,993.45
2019-05-13T16:55:46.472Z,993.43
2019-05-13T17:00:56.372Z,993.49
2019-05-13T17:05:52.965Z,993.34
2019-05-13T17:10:53.046Z,993.53
2019-05-13T17:15:53.008Z,993.48
2019-05-13T17:20:53.123Z,993.49
2019-05-13T17:25:53.313Z,993.54
2019-05-13T17:30:53.526Z,993.57
2019-05-13T17:35:53.641Z,993.59
2019-05-13T17:40:53.761Z,993.58
2019-05-13T17:45:53.685Z,993.55
2019-05-13T17:50:53.801Z,993.51
2019-05-13T17:56:03.017Z,993.56
2019-05-13T18:01:02.564Z,993.65
2019-05-13T18:06:03.051Z,993.68
2019-05-13T18:11:03.057Z,993.67
2019-05-13T18:16:06.837Z,993.65
2019-05-13T18:21:07.028Z,993.61
2019-05-13T18:26:07.043Z,993.63
2019-05-13T18:31:07.080Z,993.65
2019-05-13T18:36:07.106Z,993.64
2019-05-13T18:41:07.239Z,993.64
2019-05-13T18:46:07.396Z,993.68
2019-05-13T18:51:13.685Z,993.75
2019-05-13T18:56:13.661Z,993.8
2019-05-13T19:01:13.905Z,993.84
2019-05-13T19:06:13.833Z,993.84
2019-05-13T19:11:14.047Z,993.86
2019-05-13T19:16:13.999Z,993.91
2019-05-13T19:21:14.025Z,993.91
2019-05-13T19:26:14.211Z,993.92
2019-05-13T19:31:14.168Z,993.95
2019-05-13T19:36:14.241Z,993.95
2019-05-13T19:41:14.276Z,993.96
2019-05-13T19:46:20.650Z,993.97
2019-05-13T19:51:22.204Z,994.01
2019-05-13T19:56:22.001Z,994.02
2019-05-13T20:01:22.218Z,994.02
2019-05-13T20:06:21.940Z,994.02
2019-05-13T20:11:22.383Z,993.94
2019-05-13T20:16:22.835Z,993.92
2019-05-13T20:21:21.214Z,993.94
2019-05-13T20:26:22.258Z,993.99
2019-05-13T20:31:22.257Z,993.97
2019-05-13T20:36:22.857Z,994.0
2019-05-13T20:41:27.698Z,993.98
2019-05-13T20:46:27.765Z,994.01
2019-05-13T20:51:27.754Z,994.03
2019-05-13T20:56:27.890Z,994.01
2019-05-13T21:01:28.006Z,993.98
2019-05-13T21:06:28.014Z,993.95
2019-05-13T21:11:28.130Z,993.93
2019-05-13T21:16:28.294Z,993.84
2019-05-13T21:21:28.294Z,993.84
2019-05-13T21:26:28.494Z,993.87
2019-05-13T21:31:28.483Z,993.89
2019-05-13T21:36:34.791Z,993.9
2019-05-13T21:41:34.824Z,993.94
2019-05-13T21:46:35.079Z,993.88
2019-05-13T21:51:35.070Z,993.89
2019-05-13T21:56:35.082Z,993.87
2019-05-13T22:01:35.194Z,993.85
2019-05-13T22:06:35.380Z,993.9
2019-05-13T22:11:35.760Z,993.95
2019-05-13T22:16:35.877Z,993.88
2019-05-13T22:21:35.502Z,993.92
2019-05-13T22:26:35.618Z,993.89
2019-05-13T22:31:42.563Z,993.83
2019-05-13T22:36:42.027Z,993.82
2019-05-13T22:41:42.660Z,993.77
2019-05-13T22:46:42.321Z,993.8
2019-05-13T22:51:42.479Z,993.76
2019-05-13T22:56:42.410Z,993.75
2019-05-13T23:01:42.651Z,993.68
2019-05-13T23:06:42.650Z,993.64
2019-05-13T23:11:42.680Z,993.66
2019-05-13T23:16:42.891Z,993.64
2019-05-13T23:21:42.830Z,993.58
2019-05-13T23:26:51.352Z,993.51
2019-05-13T23:31:49.193Z,993.47
2019-05-13T23:36:51.798Z,993.51
2019-05-13T23:41:49.441Z,993.44
2019-05-13T23:46:51.920Z,993.45
2019-05-13T23:51:51.818Z,993.48
2019-05-13T23:56:49.609Z,993.37
